Time;durP1;ratioP1;P1;durP2;ratioP2;P2;SDS_P1;SDS_P2;PMS_P1;PMS_P2;Temp;Humidity;BMP_temperature;BMP_pressure;BME280_temperature;BME280_humidity;BME280_pressure;Samples;Min_cycle;Max_cycle;Signal;HPM_P1;HPM_P2
2020/12/18 00:00:43;;;;;;;;;;;;;;;20.15;40.55;101965.94;5097922;28;783;-59
2020/12/18 00:03:08;;;;;;;;;;;;;;;20.12;40.73;101964.56;5097972;28;810;-49
2020/12/18 00:05:34;;;;;;;;;;;;;;;19.63;41.70;101962.84;5097936;28;956;-51
2020/12/18 00:07:59;;;;;;;;;;;;;;;19.18;42.68;101966.94;5097651;28;767;-50
2020/12/18 00:10:26;;;;;;;;;;;;;;;20.07;41.07;101969.22;5098152;28;802;-49
2020/12/18 00:12:52;;;;;;;;;;;;;;;20.55;39.70;101967.19;5097947;28;839;-47
2020/12/18 00:15:17;;;;;;;;;;;;;;;20.02;40.81;101961.75;5097891;28;775;-47
2020/12/18 00:17:43;;;;;;;;;;;;;;;20.02;40.85;101969.19;5097574;28;839;-49
2020/12/18 00:20:08;;;;;;;;;;;;;;;19.22;42.41;101973.56;5097392;28;1910;-49
2020/12/18 00:22:34;;;;;;;;;;;;;;;19.32;42.72;101972.81;5097320;28;807;-60
2020/12/18 00:24:59;;;;;;;;;;;;;;;20.42;40.09;101968.53;5097603;28;747;-51
2020/12/18 00:27:25;;;;;;;;;;;;;;;20.11;40.57;101975.88;5097666;28;755;-47
2020/12/18 00:29:50;;;;;;;;;;;;;;;19.98;41.06;101968.91;5097490;28;767;-52
2020/12/18 00:32:15;;;;;;;;;;;;;;;19.71;41.37;101972.56;5097880;28;807;-50
2020/12/18 00:34:41;;;;;;;;;;;;;;;19.11;43.06;101980.94;5097533;28;933;-61
2020/12/18 00:37:06;;;;;;;;;;;;;;;19.87;41.32;101976.28;5096713;28;815;-51
2020/12/18 00:39:32;;;;;;;;;;;;;;;20.50;40.00;101979.06;5097400;28;1910;-51
2020/12/18 00:41:57;;;;;;;;;;;;;;;20.12;40.83;101972.84;5097352;28;735;-50
2020/12/18 00:44:22;;;;;;;;;;;;;;;19.94;40.89;101976.88;5106534;28;1197;-48
2020/12/18 00:46:48;;;;;;;;;;;;;;;19.47;42.24;101977.63;5117977;28;739;-48
2020/12/18 00:49:13;;;;;;;;;;;;;;;19.17;42.76;101975.44;5117658;28;767;-51
2020/12/18 00:51:39;;;;;;;;;;;;;;;20.12;40.85;101972.00;5099948;28;940;-51
2020/12/18 00:54:04;;;;;;;;;;;;;;;20.27;40.44;101966.56;5097162;28;783;-50
2020/12/18 00:56:30;;;;;;;;;;;;;;;20.02;40.90;101967.28;5096312;28;1256;-49
2020/12/18 00:58:56;;;;;;;;;;;;;;;19.94;41.12;101973.28;5095709;28;1971;-51
2020/12/18 01:01:22;;;;;;;;;;;;;;;19.37;42.08;101972.88;5095739;28;782;-48
2020/12/18 01:03:48;;;;;;;;;;;;;;;19.55;42.21;101976.31;5097218;28;825;-48
2020/12/18 01:06:14;;;;;;;;;;;;;;;20.49;39.94;101969.09;5095460;28;1109;-48
2020/12/18 01:08:54;;;;;;;;;;;;;;;20.32;40.17;101968.50;5095913;28;1196;-48
2020/12/18 01:11:24;;;;;;;;;;;;;;;20.03;40.83;101970.84;5095713;28;1267;-59
2020/12/18 01:13:49;;;;;;;;;;;;;;;19.75;41.50;101970.09;5095480;28;1311;-46
2020/12/18 01:16:15;;;;;;;;;;;;;;;19.19;42.82;101965.81;5095597;28;1450;-49
2020/12/18 01:18:48;;;;;;;;;;;;;;;20.12;40.73;101967.31;5095386;28;1982;-48
2020/12/18 01:21:13;;;;;;;;;;;;;;;20.59;39.74;101967.50;5096690;28;961;-47
2020/12/18 01:23:40;;;;;;;;;;;;;;;20.09;40.65;101959.56;5095572;28;1308;-50
2020/12/18 01:26:09;;;;;;;;;;;;;;;19.97;41.03;101967.22;5095185;28;2035;-47
2020/12/18 01:28:35;;;;;;;;;;;;;;;19.42;42.21;101964.63;5094559;28;1488;-50
2020/12/18 01:31:00;;;;;;;;;;;;;;;19.24;42.92;101970.56;5096598;28;755;-49
2020/12/18 01:33:26;;;;;;;;;;;;;;;20.25;40.46;101960.47;5095467;28;1161;-47
2020/12/18 01:35:52;;;;;;;;;;;;;;;20.30;40.28;101959.63;5094877;28;941;-49
2020/12/18 01:38:18;;;;;;;;;;;;;;;20.08;40.60;101954.31;5096377;28;1917;-49
2020/12/18 01:40:46;;;;;;;;;;;;;;;19.82;41.02;101955.00;5095188;28;1352;-49
2020/12/18 01:43:13;;;;;;;;;;;;;;;19.28;42.31;101964.25;5094764;28;1346;-48
2020/12/18 01:45:43;;;;;;;;;;;;;;;19.72;41.59;101962.38;5076276;28;791;-50
2020/12/18 01:48:11;;;;;;;;;;;;;;;20.49;39.89;101958.06;5075018;28;1251;-49
2020/12/18 01:50:49;;;;;;;;;;;;;;;20.03;40.76;101957.88;5084599;28;1217;-48
2020/12/18 01:53:17;;;;;;;;;;;;;;;19.89;41.06;101956.69;5095375;28;1129;-52
2020/12/18 01:56:01;;;;;;;;;;;;;;;19.41;42.24;101960.22;5095130;28;625;-46
2020/12/18 01:58:28;;;;;;;;;;;;;;;18.93;43.20;101962.00;5078344;28;1917;-47
2020/12/18 02:00:54;;;;;;;;;;;;;;;20.00;40.96;101962.00;5095264;28;1228;-50
2020/12/18 02:03:33;;;;;;;;;;;;;;;20.45;39.68;101962.47;5080180;28;1133;-48
2020/12/18 02:06:17;;;;;;;;;;;;;;;20.14;40.55;101973.38;5094463;28;1017;-49
2020/12/18 02:09:08;;;;;;;;;;;;;;;19.69;41.65;101960.97;5093817;28;1094;-48
2020/12/18 02:11:42;;;;;;;;;;;;;;;19.28;42.45;101968.94;5079151;28;2075;-48
2020/12/18 02:14:15;;;;;;;;;;;;;;;20.06;40.74;101960.09;5094988;28;1228;-47
2020/12/18 02:16:45;;;;;;;;;;;;;;;20.55;39.53;101963.59;5094637;28;1369;-46
2020/12/18 02:19:18;;;;;;;;;;;;;;;20.07;40.50;101960.94;5095901;28;1917;-47
2020/12/18 02:21:44;;;;;;;;;;;;;;;19.83;40.94;101956.66;5074394;28;1165;-48
2020/12/18 02:24:20;;;;;;;;;;;;;;;19.47;41.78;101964.69;5074548;28;1284;-46
2020/12/18 02:26:46;;;;;;;;;;;;;;;19.18;42.68;101966.06;5058158;28;1241;-50
2020/12/18 02:29:13;;;;;;;;;;;;;;;19.24;42.56;101976.06;5074168;28;1136;-48
2020/12/18 02:31:51;;;;;;;;;;;;;;;19.34;42.41;101970.63;5074658;28;1053;-47
2020/12/18 02:34:26;;;;;;;;;;;;;;;19.31;42.30;101972.00;5075021;28;1171;-47
2020/12/18 02:36:54;;;;;;;;;;;;;;;19.21;42.45;101969.16;5092904;28;1343;-47
2020/12/18 02:39:19;;;;;;;;;;;;;;;19.78;41.25;101964.91;5095424;28;1910;-49
2020/12/18 02:41:51;;;;;;;;;;;;;;;20.65;39.57;101964.47;5098993;28;1313;-48
2020/12/18 02:44:22;;;;;;;;;;;;;;;20.30;40.03;101965.16;5107886;28;1152;-50
2020/12/18 02:47:14;;;;;;;;;;;;;;;20.12;40.63;101974.78;5103585;28;1133;-52
2020/12/18 02:49:40;;;;;;;;;;;;;;;19.60;41.47;101979.09;5119390;28;972;-48
2020/12/18 02:52:05;;;;;;;;;;;;;;;19.15;42.51;101976.56;5098274;28;1283;-49
2020/12/18 02:54:59;;;;;;;;;;;;;;;20.22;40.49;101974.81;5098568;28;1366;-51
2020/12/18 02:57:44;;;;;;;;;;;;;;;20.23;40.29;101982.00;5098734;28;983;-50
2020/12/18 03:00:30;;;;;;;;;;;;;;;19.99;40.80;101976.06;5098912;28;1118;-53
2020/12/18 03:02:56;;;;;;;;;;;;;;;19.77;41.08;101984.47;5099303;28;811;-50
2020/12/18 03:05:26;;;;;;;;;;;;;;;19.15;42.79;101979.31;5097838;28;1169;-49
2020/12/18 03:08:04;;;;;;;;;;;;;;;19.60;41.85;101979.09;5099212;28;878;-50
2020/12/18 03:10:31;;;;;;;;;;;;;;;20.33;40.26;101982.03;5097926;28;1195;-48
2020/12/18 03:12:56;;;;;;;;;;;;;;;20.12;40.63;101980.31;5098803;28;770;-51
2020/12/18 03:15:22;;;;;;;;;;;;;;;20.03;40.58;101982.72;5098029;28;1180;-50
2020/12/18 03:18:00;;;;;;;;;;;;;;;19.63;41.41;101984.13;5097939;28;1934;-52
2020/12/18 03:20:27;;;;;;;;;;;;;;;19.21;42.78;101982.94;5097260;28;1928;-54
2020/12/18 03:23:22;;;;;;;;;;;;;;;20.31;40.28;101980.66;5061396;28;1312;-50
2020/12/18 03:26:14;;;;;;;;;;;;;;;20.09;40.78;101981.66;5096673;28;1182;-48
2020/12/18 03:28:47;;;;;;;;;;;;;;;19.87;40.98;101992.03;5097554;28;1121;-52
2020/12/18 03:31:13;;;;;;;;;;;;;;;19.57;41.71;101993.44;5097767;28;1228;-49
2020/12/18 03:33:40;;;;;;;;;;;;;;;19.04;42.85;101991.34;5098998;28;816;-51
2020/12/18 03:36:21;;;;;;;;;;;;;;;19.81;41.41;101986.47;5097424;28;1183;-47
2020/12/18 03:38:46;;;;;;;;;;;;;;;20.52;39.60;101985.16;5098627;28;1972;-47
2020/12/18 03:41:12;;;;;;;;;;;;;;;19.99;40.74;101978.81;5097266;28;1113;-59
2020/12/18 03:43:38;;;;;;;;;;;;;;;19.86;40.91;101979.31;5100861;28;1467;-46
2020/12/18 03:46:06;;;;;;;;;;;;;;;19.41;41.78;101981.47;5117911;28;1144;-49
2020/12/18 03:49:00;;;;;;;;;;;;;;;19.72;41.37;101981.69;5117465;28;1108;-51
2020/12/18 03:51:40;;;;;;;;;;;;;;;20.51;39.66;101977.97;5100129;28;1195;-49
2020/12/18 03:54:06;;;;;;;;;;;;;;;19.93;40.75;101977.16;5097446;28;1152;-48
2020/12/18 03:56:49;;;;;;;;;;;;;;;19.89;40.83;101987.88;5096919;28;1248;-51
2020/12/18 03:59:24;;;;;;;;;;;;;;;19.20;42.53;101985.97;5097146;28;1974;-49
2020/12/18 04:02:00;;;;;;;;;;;;;;;20.09;40.74;101984.41;5097102;28;1280;-49
2020/12/18 04:04:26;;;;;;;;;;;;;;;20.47;39.57;101996.19;5096826;28;1204;-48
2020/12/18 04:06:55;;;;;;;;;;;;;;;20.05;40.44;101988.81;5096504;28;1374;-49
2020/12/18 04:09:22;;;;;;;;;;;;;;;20.03;40.61;101993.75;5096978;28;1324;-49
2020/12/18 04:11:55;;;;;;;;;;;;;;;19.56;41.53;101994.50;5096591;28;1141;-49
2020/12/18 04:14:31;;;;;;;;;;;;;;;19.87;41.17;101990.09;5097033;28;1255;-51
2020/12/18 04:17:07;;;;;;;;;;;;;;;20.66;39.52;101990.16;5096743;28;1224;-60
2020/12/18 04:19:33;;;;;;;;;;;;;;;20.23;40.28;101989.44;5097437;28;1971;-53
2020/12/18 04:21:59;;;;;;;;;;;;;;;20.04;40.82;101989.91;5097563;28;965;-51
2020/12/18 04:24:44;;;;;;;;;;;;;;;19.66;41.28;102002.88;5097449;28;1023;-63
2020/12/18 04:27:11;;;;;;;;;;;;;;;19.18;42.62;101993.66;5096366;28;1137;-48
2020/12/18 04:29:37;;;;;;;;;;;;;;;20.17;40.49;101989.44;5097703;28;814;-51
2020/12/18 04:32:03;;;;;;;;;;;;;;;20.31;39.97;101986.16;5096389;28;1323;-46
2020/12/18 04:34:29;;;;;;;;;;;;;;;20.10;40.32;101993.53;5097363;28;798;-55
2020/12/18 04:37:15;;;;;;;;;;;;;;;19.81;40.95;101991.97;5096588;28;1207;-54
2020/12/18 04:39:59;;;;;;;;;;;;;;;19.36;42.13;101995.19;5097122;28;1909;-50
2020/12/18 04:42:31;;;;;;;;;;;;;;;20.29;40.15;101991.16;5096431;28;1164;-48
2020/12/18 04:44:57;;;;;;;;;;;;;;;20.09;40.28;101989.94;5110876;28;1264;-53
2020/12/18 04:47:22;;;;;;;;;;;;;;;20.07;40.40;101994.88;5099567;28;1133;-54
2020/12/18 04:49:49;;;;;;;;;;;;;;;19.81;40.96;101997.50;5097987;28;1491;-56
2020/12/18 04:52:21;;;;;;;;;;;;;;;19.28;42.07;101996.53;5080181;28;1253;-56
2020/12/18 04:54:50;;;;;;;;;;;;;;;19.21;42.42;101987.59;5095690;28;1204;-57
2020/12/18 04:57:42;;;;;;;;;;;;;;;20.01;40.67;101984.94;5073104;28;1184;-48
2020/12/18 05:00:11;;;;;;;;;;;;;;;20.65;39.01;101985.72;5095755;28;1905;-57
2020/12/18 05:02:55;;;;;;;;;;;;;;;20.09;40.39;101986.34;5095991;28;620;-56
2020/12/18 05:05:21;;;;;;;;;;;;;;;19.69;41.12;101994.06;5070272;28;1369;-54
2020/12/18 05:07:59;;;;;;;;;;;;;;;19.36;41.98;101993.25;5081591;28;941;-52
2020/12/18 05:10:24;;;;;;;;;;;;;;;20.05;40.81;101994.34;5092225;28;1372;-50
2020/12/18 05:12:58;;;;;;;;;;;;;;;20.58;39.10;101998.97;5075545;28;1336;-50
2020/12/18 05:15:37;;;;;;;;;;;;;;;19.98;40.46;101996.50;5075268;28;1332;-58
2020/12/18 05:18:21;;;;;;;;;;;;;;;19.76;40.97;101999.38;5076170;28;1898;-50
2020/12/18 05:20:47;;;;;;;;;;;;;;;19.35;41.56;101999.88;5084547;28;1189;-49
2020/12/18 05:23:22;;;;;;;;;;;;;;;19.66;41.25;102008.41;5093370;28;1184;-51
2020/12/18 05:26:07;;;;;;;;;;;;;;;20.62;39.10;102006.47;5094918;28;1188;-56
2020/12/18 05:28:39;;;;;;;;;;;;;;;20.03;40.35;101999.28;5095327;28;1267;-50
2020/12/18 05:31:12;;;;;;;;;;;;;;;20.04;40.47;102000.94;5095038;28;1117;-49
2020/12/18 05:34:10;;;;;;;;;;;;;;;19.31;41.87;102005.09;5095384;28;1229;-48
2020/12/18 05:37:01;;;;;;;;;;;;;;;19.38;41.90;102010.38;5074297;28;1000;-58
2020/12/18 05:40:03;;;;;;;;;;;;;;;20.45;39.61;102005.84;5033707;28;1883;-52
2020/12/18 05:42:47;;;;;;;;;;;;;;;20.05;40.29;102012.81;5073028;28;1036;-55
2020/12/18 05:45:17;;;;;;;;;;;;;;;19.94;40.41;102011.94;5109429;28;1390;-57
2020/12/18 05:48:13;;;;;;;;;;;;;;;19.48;41.65;102012.41;5078653;28;1246;-51
2020/12/18 05:50:50;;;;;;;;;;;;;;;19.34;41.90;102019.47;5104918;28;1499;-48
2020/12/18 05:53:16;;;;;;;;;;;;;;;20.39;39.55;102024.34;5095075;28;1301;-50
2020/12/18 05:55:52;;;;;;;;;;;;;;;20.05;40.29;102019.19;5094549;28;915;-57
2020/12/18 05:58:32;;;;;;;;;;;;;;;19.88;40.69;102024.03;5094703;28;1906;-52
2020/12/18 06:01:16;;;;;;;;;;;;;;;19.47;41.40;102030.91;5095217;28;1204;-60
2020/12/18 06:04:01;;;;;;;;;;;;;;;19.38;41.82;102039.91;5094678;28;665;-56
2020/12/18 06:06:27;;;;;;;;;;;;;;;20.46;39.31;102032.38;5095884;28;989;-54
2020/12/18 06:08:53;;;;;;;;;;;;;;;20.06;40.36;102031.88;5078455;28;1320;-58
2020/12/18 06:11:19;;;;;;;;;;;;;;;20.02;40.30;102035.44;5094552;28;1319;-47
2020/12/18 06:13:58;;;;;;;;;;;;;;;19.66;40.94;102038.75;5080632;28;1190;-53
2020/12/18 06:16:45;;;;;;;;;;;;;;;19.34;41.91;102036.00;5098733;28;1523;-53
2020/12/18 06:19:20;;;;;;;;;;;;;;;20.45;39.56;102030.72;5099694;28;1972;-46
2020/12/18 06:21:53;;;;;;;;;;;;;;;19.98;40.47;102032.41;5099020;28;1244;-56
2020/12/18 06:24:30;;;;;;;;;;;;;;;20.07;40.10;102036.31;5098611;28;1049;-51
2020/12/18 06:27:06;;;;;;;;;;;;;;;19.51;41.41;102033.13;5099760;28;976;-54
2020/12/18 06:29:41;;;;;;;;;;;;;;;19.37;41.99;102041.81;5098899;28;1220;-49
2020/12/18 06:32:25;;;;;;;;;;;;;;;20.48;39.36;102036.53;5099827;28;614;-51
2020/12/18 06:35:23;;;;;;;;;;;;;;;20.98;38.29;102036.16;5099884;28;1001;-52
2020/12/18 06:37:52;;;;;;;;;;;;;;;20.54;39.26;102036.53;5098742;28;1148;-52
2020/12/18 06:40:25;;;;;;;;;;;;;;;20.23;39.85;102036.41;5098570;28;1208;-51
2020/12/18 06:43:14;;;;;;;;;;;;;;;19.67;41.00;102043.19;5094282;28;1134;-50
2020/12/18 06:46:03;;;;;;;;;;;;;;;19.34;41.74;102047.88;5103868;28;1254;-60
2020/12/18 06:48:53;;;;;;;;;;;;;;;20.03;40.43;102037.94;5091288;28;1122;-52
2020/12/18 06:51:44;;;;;;;;;;;;;;;20.47;39.20;102039.56;5073722;28;1250;-52
2020/12/18 06:54:30;;;;;;;;;;;;;;;19.98;40.27;102052.53;5084252;28;1225;-52
2020/12/18 06:57:18;;;;;;;;;;;;;;;19.74;40.99;102051.22;5098800;28;1124;-56
2020/12/18 06:59:47;;;;;;;;;;;;;;;19.35;41.66;102048.69;5099496;28;1976;-58
2020/12/18 07:02:31;;;;;;;;;;;;;;;19.10;42.27;102048.19;5099139;28;743;-56
2020/12/18 07:04:56;;;;;;;;;;;;;;;19.22;41.99;102049.94;5099221;28;1005;-52
2020/12/18 07:07:22;;;;;;;;;;;;;;;19.40;41.67;102052.31;5099769;28;878;-47
2020/12/18 07:09:47;;;;;;;;;;;;;;;19.13;42.19;102055.94;5098886;28;815;-56
2020/12/18 07:12:12;;;;;;;;;;;;;;;19.69;40.94;102060.31;5098226;28;843;-51
2020/12/18 07:14:38;;;;;;;;;;;;;;;20.45;39.50;102061.91;5098117;28;848;-49
2020/12/18 07:17:03;;;;;;;;;;;;;;;20.06;40.12;102073.28;5097884;28;1144;-48
2020/12/18 07:19:29;;;;;;;;;;;;;;;19.87;40.67;102072.06;5097709;28;1918;-48
2020/12/18 07:22:09;;;;;;;;;;;;;;;19.63;41.19;102066.88;5098001;28;1248;-48
2020/12/18 07:24:34;;;;;;;;;;;;;;;19.31;41.85;102064.94;5099298;28;788;-49
2020/12/18 07:27:00;;;;;;;;;;;;;;;20.33;39.70;102053.88;5098227;28;862;-50
2020/12/18 07:29:25;;;;;;;;;;;;;;;20.20;39.94;102053.50;5098937;28;811;-55
2020/12/18 07:31:50;;;;;;;;;;;;;;;20.06;40.20;102065.00;5097026;28;904;-57
2020/12/18 07:34:16;;;;;;;;;;;;;;;19.70;40.95;102061.97;5097934;28;1377;-58
2020/12/18 07:36:41;;;;;;;;;;;;;;;19.06;42.15;102069.09;5097334;28;1313;-58
2020/12/18 07:39:09;;;;;;;;;;;;;;;19.86;40.60;102059.38;5098382;28;1902;-58
2020/12/18 07:41:34;;;;;;;;;;;;;;;20.44;39.23;102060.28;5098866;28;827;-58
2020/12/18 07:44:05;;;;;;;;;;;;;;;19.88;40.37;102059.91;5105658;28;1109;-58
2020/12/18 07:46:30;;;;;;;;;;;;;;;19.91;40.15;102063.00;5118763;28;747;-54
2020/12/18 07:48:56;;;;;;;;;;;;;;;19.39;41.37;102063.63;5119103;28;827;-57
2020/12/18 07:51:21;;;;;;;;;;;;;;;19.68;41.10;102064.16;5104256;28;1000;-51
2020/12/18 07:53:50;;;;;;;;;;;;;;;20.50;39.35;102067.47;5098205;28;804;-51
2020/12/18 07:56:16;;;;;;;;;;;;;;;20.13;39.81;102067.53;5098622;28;779;-57
2020/12/18 07:58:48;;;;;;;;;;;;;;;19.98;40.00;102062.78;5098327;28;1902;-58
2020/12/18 08:01:20;;;;;;;;;;;;;;;19.58;40.97;102064.91;5098091;28;740;-58
2020/12/18 08:03:50;;;;;;;;;;;;;;;19.45;41.37;102068.94;5098414;28;795;-49
2020/12/18 08:06:16;;;;;;;;;;;;;;;20.35;39.53;102067.41;5097834;28;1008;-53
2020/12/18 08:08:42;;;;;;;;;;;;;;;20.15;39.58;102068.13;5098039;28;803;-59
2020/12/18 08:11:14;;;;;;;;;;;;;;;20.01;40.15;102073.28;5096843;28;1148;-59
2020/12/18 08:13:39;;;;;;;;;;;;;;;19.46;41.27;102073.34;5096530;28;910;-52
2020/12/18 08:16:05;;;;;;;;;;;;;;;19.20;41.78;102071.44;5097803;28;771;-52
2020/12/18 08:18:31;;;;;;;;;;;;;;;20.17;39.89;102066.75;5097885;28;1964;-58
2020/12/18 08:20:56;;;;;;;;;;;;;;;20.43;39.17;102066.91;5096795;28;961;-53
2020/12/18 08:23:22;;;;;;;;;;;;;;;20.04;40.15;102071.91;5097528;28;776;-53
2020/12/18 08:25:47;;;;;;;;;;;;;;;19.80;40.47;102073.13;5096966;28;720;-52
2020/12/18 08:28:13;;;;;;;;;;;;;;;19.46;41.21;102062.31;5096162;28;823;-53
2020/12/18 08:30:38;;;;;;;;;;;;;;;19.52;41.15;102062.34;5097396;28;715;-52
2020/12/18 08:33:03;;;;;;;;;;;;;;;20.55;38.80;102065.84;5096778;28;739;-51
2020/12/18 08:35:29;;;;;;;;;;;;;;;20.27;39.47;102067.91;5096223;28;958;-54
2020/12/18 08:38:05;;;;;;;;;;;;;;;20.03;40.08;102065.53;5097079;28;739;-54
2020/12/18 08:40:30;;;;;;;;;;;;;;;19.46;41.07;102067.84;5096391;28;1366;-57
2020/12/18 08:42:59;;;;;;;;;;;;;;;18.99;42.16;102071.22;5097791;28;783;-45
2020/12/18 08:45:25;;;;;;;;;;;;;;;20.10;39.99;102071.66;5115662;28;1183;-49
2020/12/18 08:47:50;;;;;;;;;;;;;;;20.33;39.27;102064.91;5117322;28;815;-50
2020/12/18 08:50:17;;;;;;;;;;;;;;;19.97;40.27;102061.09;5112863;28;988;-52
2020/12/18 08:52:42;;;;;;;;;;;;;;;19.86;40.09;102051.91;5097320;28;870;-54
2020/12/18 08:55:08;;;;;;;;;;;;;;;19.20;41.41;102060.41;5096220;28;909;-49
2020/12/18 08:57:33;;;;;;;;;;;;;;;19.77;40.65;102045.19;5097243;28;751;-52
2020/12/18 08:59:59;;;;;;;;;;;;;;;20.61;38.68;102048.19;5096868;28;1910;-50
2020/12/18 09:02:25;;;;;;;;;;;;;;;19.97;39.88;102045.34;5097518;28;755;-50
2020/12/18 09:05:09;;;;;;;;;;;;;;;19.77;40.31;102045.19;5096734;28;953;-53
2020/12/18 09:07:38;;;;;;;;;;;;;;;19.21;41.68;102045.50;5097026;28;818;-56
2020/12/18 09:10:03;;;;;;;;;;;;;;;19.86;40.64;102040.03;5096963;28;823;-51
2020/12/18 09:12:29;;;;;;;;;;;;;;;20.58;38.79;102043.19;5097272;28;744;-53
2020/12/18 09:14:54;;;;;;;;;;;;;;;20.11;39.80;102040.19;5096729;28;827;-54
2020/12/18 09:17:19;;;;;;;;;;;;;;;20.06;40.03;102037.41;5096421;28;855;-51
2020/12/18 09:19:46;;;;;;;;;;;;;;;19.47;41.08;102041.94;5096102;28;1972;-50
2020/12/18 09:22:12;;;;;;;;;;;;;;;19.65;40.94;102032.38;5096681;28;748;-47
2020/12/18 09:24:38;;;;;;;;;;;;;;;20.56;38.98;102029.66;5096883;28;870;-50
2020/12/18 09:27:07;;;;;;;;;;;;;;;19.96;40.00;102035.44;5096585;28;839;-51
2020/12/18 09:29:32;;;;;;;;;;;;;;;19.96;39.93;102034.59;5096542;28;874;-52
2020/12/18 09:31:57;;;;;;;;;;;;;;;19.46;40.90;102022.84;5096549;28;800;-55
2020/12/18 09:34:23;;;;;;;;;;;;;;;19.04;42.24;102029.06;5096971;28;736;-59
2020/12/18 09:36:48;;;;;;;;;;;;;;;20.08;39.92;102029.69;5096900;28;1008;-57
2020/12/18 09:39:14;;;;;;;;;;;;;;;20.19;39.44;102027.84;5096399;28;1910;-50
2020/12/18 09:41:39;;;;;;;;;;;;;;;19.87;40.27;102027.91;5096378;28;839;-56
2020/12/18 09:44:04;;;;;;;;;;;;;;;19.86;40.38;102029.00;5103304;28;1090;-54
2020/12/18 09:46:30;;;;;;;;;;;;;;;19.31;41.69;102031.84;5116827;28;812;-49
2020/12/18 09:48:55;;;;;;;;;;;;;;;19.85;40.50;102030.91;5116476;28;851;-50
2020/12/18 09:51:21;;;;;;;;;;;;;;;20.59;39.03;102025.50;5102339;28;988;-59
2020/12/18 09:53:46;;;;;;;;;;;;;;;20.21;39.59;102022.03;5095442;28;850;-48
2020/12/18 09:56:12;;;;;;;;;;;;;;;20.02;40.16;102024.41;5096413;28;751;-51
2020/12/18 09:58:37;;;;;;;;;;;;;;;19.55;40.87;102014.94;5096324;28;1914;-48
2020/12/18 10:01:03;;;;;;;;;;;;;;;19.09;42.06;102024.44;5096328;28;755;-54
2020/12/18 10:03:29;;;;;;;;;;;;;;;20.27;39.78;102021.81;5096245;28;736;-52
2020/12/18 10:05:54;;;;;;;;;;;;;;;20.49;38.90;102018.84;5095681;28;980;-54
2020/12/18 10:08:20;;;;;;;;;;;;;;;20.08;39.93;102018.66;5095969;28;771;-54
2020/12/18 10:10:45;;;;;;;;;;;;;;;19.95;40.35;102019.09;5096269;28;795;-53
2020/12/18 10:13:11;;;;;;;;;;;;;;;19.46;41.38;102023.69;5095938;28;889;-49
2020/12/18 10:15:36;;;;;;;;;;;;;;;19.24;41.89;102020.19;5096035;28;807;-53
2020/12/18 10:18:02;;;;;;;;;;;;;;;20.10;40.05;102021.13;5096076;28;739;-55
2020/12/18 10:20:27;;;;;;;;;;;;;;;20.52;39.01;102023.84;5094385;28;1909;-56
2020/12/18 10:22:53;;;;;;;;;;;;;;;20.18;39.82;102023.41;5096014;28;751;-49
2020/12/18 10:25:18;;;;;;;;;;;;;;;20.03;39.99;102015.84;5095769;28;890;-50
2020/12/18 10:27:44;;;;;;;;;;;;;;;19.58;41.09;102022.69;5095943;28;740;-50
2020/12/18 10:30:09;;;;;;;;;;;;;;;19.41;41.36;102020.88;5095843;28;823;-46
2020/12/18 10:32:35;;;;;;;;;;;;;;;20.31;39.45;102025.69;5095631;28;774;-47
2020/12/18 10:35:00;;;;;;;;;;;;;;;20.09;39.85;102017.56;5095236;28;921;-56
2020/12/18 10:37:27;;;;;;;;;;;;;;;20.04;40.09;102017.53;5095899;28;795;-50
2020/12/18 10:39:52;;;;;;;;;;;;;;;19.81;40.41;102019.59;5095660;28;1909;-47
2020/12/18 10:42:18;;;;;;;;;;;;;;;19.37;41.33;102014.22;5096048;28;743;-47
2020/12/18 10:44:44;;;;;;;;;;;;;;;20.16;39.85;102017.28;5108231;28;1197;-51
2020/12/18 10:47:09;;;;;;;;;;;;;;;20.36;39.41;102019.34;5116074;28;791;-50
2020/12/18 10:49:34;;;;;;;;;;;;;;;20.09;39.93;102020.31;5116252;28;823;-49
2020/12/18 10:52:01;;;;;;;;;;;;;;;20.02;40.13;102019.72;5095869;28;1023;-48
2020/12/18 10:54:27;;;;;;;;;;;;;;;19.40;41.43;102019.22;5095648;28;767;-53
2020/12/18 10:56:53;;;;;;;;;;;;;;;20.02;40.33;102008.69;5095397;28;827;-47
2020/12/18 10:59:19;;;;;;;;;;;;;;;20.70;38.46;102010.66;5095847;28;1973;-53
2020/12/18 11:01:44;;;;;;;;;;;;;;;20.27;39.67;102010.75;5096893;28;819;-53
2020/12/18 11:04:10;;;;;;;;;;;;;;;19.94;40.04;102017.47;5099411;28;811;-52
2020/12/18 11:06:38;;;;;;;;;;;;;;;19.37;41.30;102008.72;5098674;28;957;-47
2020/12/18 11:09:04;;;;;;;;;;;;;;;19.08;42.34;102010.94;5099028;28;820;-46
2020/12/18 11:11:29;;;;;;;;;;;;;;;20.25;39.68;102012.13;5099459;28;724;-54
2020/12/18 11:13:55;;;;;;;;;;;;;;;20.14;39.71;102005.69;5099162;28;790;-58
2020/12/18 11:16:21;;;;;;;;;;;;;;;19.98;40.17;102007.56;5099094;28;838;-53
2020/12/18 11:18:48;;;;;;;;;;;;;;;19.76;40.48;101997.44;5099135;28;1909;-52
2020/12/18 11:21:13;;;;;;;;;;;;;;;19.44;41.34;102003.81;5098431;28;929;-47
2020/12/18 11:23:39;;;;;;;;;;;;;;;20.06;40.22;102006.22;5099277;28;756;-55
2020/12/18 11:26:04;;;;;;;;;;;;;;;20.63;38.81;102004.53;5099015;28;779;-55
2020/12/18 11:28:29;;;;;;;;;;;;;;;20.09;39.74;101998.22;5098161;28;854;-51
2020/12/18 11:30:55;;;;;;;;;;;;;;;19.99;40.07;102006.44;5098954;28;822;-55
2020/12/18 11:33:20;;;;;;;;;;;;;;;19.49;41.00;102000.28;5098962;28;807;-55
2020/12/18 11:35:46;;;;;;;;;;;;;;;19.49;41.37;102003.03;5097335;28;1005;-52
2020/12/18 11:38:11;;;;;;;;;;;;;;;20.49;39.25;101995.91;5098954;28;1976;-47
2020/12/18 11:40:37;;;;;;;;;;;;;;;20.30;39.52;102001.91;5098841;28;838;-47
2020/12/18 11:43:02;;;;;;;;;;;;;;;20.16;39.74;102004.34;5098283;28;816;-48
2020/12/18 11:45:28;;;;;;;;;;;;;;;19.77;40.28;102003.81;5117507;28;1118;-47
2020/12/18 11:47:53;;;;;;;;;;;;;;;19.24;41.51;102003.66;5118961;28;803;-52
2020/12/18 11:50:19;;;;;;;;;;;;;;;20.21;39.69;102002.72;5112160;28;1086;-56
2020/12/18 11:52:44;;;;;;;;;;;;;;;20.49;39.05;102002.25;5098379;28;743;-47
2020/12/18 11:55:09;;;;;;;;;;;;;;;20.05;39.75;102004.53;5098140;28;755;-55
2020/12/18 11:57:35;;;;;;;;;;;;;;;19.97;39.82;102008.66;5098046;28;743;-48
2020/12/18 12:00:00;;;;;;;;;;;;;;;19.53;40.89;102006.09;5098313;28;1913;-54
2020/12/18 12:02:26;;;;;;;;;;;;;;;19.30;41.80;101997.91;5096712;28;850;-50
2020/12/18 12:04:51;;;;;;;;;;;;;;;20.26;39.51;101997.19;5097646;28;1012;-52
2020/12/18 12:07:17;;;;;;;;;;;;;;;20.51;38.91;101994.53;5098330;28;789;-49
2020/12/18 12:09:42;;;;;;;;;;;;;;;20.23;39.48;101997.72;5098061;28;783;-53
2020/12/18 12:12:14;;;;;;;;;;;;;;;20.03;39.69;101999.28;5097357;28;846;-55
2020/12/18 12:14:39;;;;;;;;;;;;;;;19.37;42.58;102005.13;5097289;28;923;-47
2020/12/18 12:17:04;;;;;;;;;;;;;;;19.05;43.08;102005.94;5098015;28;747;-54
2020/12/18 12:19:30;;;;;;;;;;;;;;;20.15;40.71;101999.91;5097865;28;1917;-52
2020/12/18 12:21:55;;;;;;;;;;;;;;;20.29;39.89;101996.66;5097782;28;992;-50
2020/12/18 12:24:21;;;;;;;;;;;;;;;20.11;40.57;101996.03;5097696;28;791;-55
2020/12/18 12:26:47;;;;;;;;;;;;;;;19.75;41.03;102004.03;5097655;28;746;-52
2020/12/18 12:29:12;;;;;;;;;;;;;;;19.11;42.48;102002.13;5097494;28;806;-56
2020/12/18 12:31:38;;;;;;;;;;;;;;;20.15;40.24;102002.66;5097565;28;874;-53
2020/12/18 12:34:03;;;;;;;;;;;;;;;20.37;39.93;102003.59;5096951;28;991;-52
2020/12/18 12:36:29;;;;;;;;;;;;;;;20.08;40.33;102002.09;5097464;28;992;-45
2020/12/18 12:38:54;;;;;;;;;;;;;;;19.88;40.79;101996.44;5097438;28;1980;-51
2020/12/18 12:41:20;;;;;;;;;;;;;;;19.41;41.62;102007.09;5097632;28;763;-46
2020/12/18 12:43:45;;;;;;;;;;;;;;;19.70;41.26;102004.03;5101662;28;1184;-53
2020/12/18 12:46:10;;;;;;;;;;;;;;;20.52;39.54;102003.66;5117863;28;751;-49
2020/12/18 12:48:36;;;;;;;;;;;;;;;20.06;40.28;102004.25;5118018;28;755;-46
2020/12/18 12:51:01;;;;;;;;;;;;;;;20.14;40.16;102002.94;5105636;28;980;-51
2020/12/18 12:53:27;;;;;;;;;;;;;;;19.68;41.08;102003.44;5097540;28;751;-53
2020/12/18 12:55:53;;;;;;;;;;;;;;;19.22;42.14;102003.06;5097248;28;747;-57
2020/12/18 12:58:18;;;;;;;;;;;;;;;19.16;42.40;102015.97;5097059;28;1921;-50
2020/12/18 13:00:44;;;;;;;;;;;;;;;19.23;42.18;102013.00;5097159;28;748;-46
2020/12/18 13:03:10;;;;;;;;;;;;;;;19.51;41.68;102008.28;5097217;28;775;-51
2020/12/18 13:05:35;;;;;;;;;;;;;;;19.20;42.03;102021.81;5095867;28;1001;-51